sensor_id;sensor_type;location;lat;lon;timestamp;temperature;humidity
51383;DHT22;37475;43.358;1.248;2023-02-01T00:00:02;6.00;84.80
51383;DHT22;37475;43.358;1.248;2023-02-01T00:02:29;6.10;84.50
51383;DHT22;37475;43.358;1.248;2023-02-01T00:04:55;6.20;84.10
51383;DHT22;37475;43.358;1.248;2023-02-01T00:07:20;6.20;84.10
51383;DHT22;37475;43.358;1.248;2023-02-01T00:09:46;6.20;84.00
51383;DHT22;37475;43.358;1.248;2023-02-01T00:12:12;6.30;84.00
51383;DHT22;37475;43.358;1.248;2023-02-01T00:14:38;6.10;84.30
51383;DHT22;37475;43.358;1.248;2023-02-01T00:17:08;6.10;84.50
51383;DHT22;37475;43.358;1.248;2023-02-01T00:19:34;6.20;84.60
51383;DHT22;37475;43.358;1.248;2023-02-01T00:22:00;6.20;84.30
51383;DHT22;37475;43.358;1.248;2023-02-01T00:24:26;6.20;84.20
51383;DHT22;37475;43.358;1.248;2023-02-01T00:26:52;6.10;84.70
51383;DHT22;37475;43.358;1.248;2023-02-01T00:29:19;6.10;84.90
51383;DHT22;37475;43.358;1.248;2023-02-01T00:31:46;6.10;85.00
51383;DHT22;37475;43.358;1.248;2023-02-01T00:34:14;6.00;85.10
51383;DHT22;37475;43.358;1.248;2023-02-01T00:36:41;6.00;85.40
51383;DHT22;37475;43.358;1.248;2023-02-01T00:39:08;5.90;85.60
51383;DHT22;37475;43.358;1.248;2023-02-01T00:41:35;5.90;85.80
51383;DHT22;37475;43.358;1.248;2023-02-01T00:44:01;5.90;85.90
51383;DHT22;37475;43.358;1.248;2023-02-01T00:46:28;5.90;86.00
51383;DHT22;37475;43.358;1.248;2023-02-01T00:48:54;5.90;86.00
51383;DHT22;37475;43.358;1.248;2023-02-01T00:51:23;5.90;86.00
51383;DHT22;37475;43.358;1.248;2023-02-01T00:53:51;5.90;85.80
51383;DHT22;37475;43.358;1.248;2023-02-01T00:56:17;5.90;85.50
51383;DHT22;37475;43.358;1.248;2023-02-01T00:58:43;5.90;85.40
51383;DHT22;37475;43.358;1.248;2023-02-01T01:03:43;6.00;85.20
51383;DHT22;37475;43.358;1.248;2023-02-01T01:06:15;6.00;85.00
51383;DHT22;37475;43.358;1.248;2023-02-01T01:08:42;6.00;85.20
51383;DHT22;37475;43.358;1.248;2023-02-01T01:11:14;6.00;85.20
51383;DHT22;37475;43.358;1.248;2023-02-01T01:13:42;6.00;85.30
51383;DHT22;37475;43.358;1.248;2023-02-01T01:16:10;5.90;85.30
51383;DHT22;37475;43.358;1.248;2023-02-01T01:18:36;5.90;85.40
51383;DHT22;37475;43.358;1.248;2023-02-01T01:21:05;5.90;85.50
51383;DHT22;37475;43.358;1.248;2023-02-01T01:23:31;5.90;85.60
51383;DHT22;37475;43.358;1.248;2023-02-01T01:25:57;5.90;85.50
51383;DHT22;37475;43.358;1.248;2023-02-01T01:28:24;6.00;85.50
51383;DHT22;37475;43.358;1.248;2023-02-01T01:30:50;5.90;85.70
51383;DHT22;37475;43.358;1.248;2023-02-01T01:33:15;5.90;85.70
51383;DHT22;37475;43.358;1.248;2023-02-01T01:35:41;6.00;85.70
51383;DHT22;37475;43.358;1.248;2023-02-01T01:38:10;6.00;85.70
51383;DHT22;37475;43.358;1.248;2023-02-01T01:40:36;6.10;85.70
51383;DHT22;37475;43.358;1.248;2023-02-01T01:43:03;6.10;85.30
51383;DHT22;37475;43.358;1.248;2023-02-01T01:45:31;6.10;84.90
51383;DHT22;37475;43.358;1.248;2023-02-01T01:48:11;6.10;84.80
51383;DHT22;37475;43.358;1.248;2023-02-01T01:50:52;6.20;84.60
51383;DHT22;37475;43.358;1.248;2023-02-01T01:53:24;6.10;84.60
51383;DHT22;37475;43.358;1.248;2023-02-01T01:55:53;6.20;84.80
51383;DHT22;37475;43.358;1.248;2023-02-01T01:58:24;6.10;84.60
51383;DHT22;37475;43.358;1.248;2023-02-01T02:00:53;6.20;84.70
51383;DHT22;37475;43.358;1.248;2023-02-01T02:03:30;6.10;84.30
51383;DHT22;37475;43.358;1.248;2023-02-01T02:06:02;6.10;84.40
51383;DHT22;37475;43.358;1.248;2023-02-01T02:08:29;6.10;84.60
51383;DHT22;37475;43.358;1.248;2023-02-01T02:10:55;6.10;84.40
51383;DHT22;37475;43.358;1.248;2023-02-01T02:13:28;6.10;84.50
51383;DHT22;37475;43.358;1.248;2023-02-01T02:21:42;6.10;84.40
51383;DHT22;37475;43.358;1.248;2023-02-01T02:36:19;6.10;83.90
51383;DHT22;37475;43.358;1.248;2023-02-01T02:45:17;6.10;84.00
51383;DHT22;37475;43.358;1.248;2023-02-01T02:50:58;6.10;84.30
51383;DHT22;37475;43.358;1.248;2023-02-01T02:54:15;6.10;84.30
51383;DHT22;37475;43.358;1.248;2023-02-01T02:57:05;6.10;84.30
51383;DHT22;37475;43.358;1.248;2023-02-01T02:59:52;6.00;84.50
51383;DHT22;37475;43.358;1.248;2023-02-01T03:02:37;6.00;84.60
51383;DHT22;37475;43.358;1.248;2023-02-01T03:05:22;6.00;84.70
51383;DHT22;37475;43.358;1.248;2023-02-01T03:10:47;6.10;84.60
51383;DHT22;37475;43.358;1.248;2023-02-01T03:21:55;6.00;84.80
51383;DHT22;37475;43.358;1.248;2023-02-01T03:24:38;5.90;84.90
51383;DHT22;37475;43.358;1.248;2023-02-01T03:27:20;6.00;85.00
51383;DHT22;37475;43.358;1.248;2023-02-01T03:32:38;6.00;85.00
51383;DHT22;37475;43.358;1.248;2023-02-01T03:35:36;6.10;84.90
51383;DHT22;37475;43.358;1.248;2023-02-01T03:40:54;6.00;84.90
51383;DHT22;37475;43.358;1.248;2023-02-01T03:43:24;6.00;85.00
51383;DHT22;37475;43.358;1.248;2023-02-01T03:45:58;5.90;85.00
51383;DHT22;37475;43.358;1.248;2023-02-01T03:48:28;5.90;85.20
51383;DHT22;37475;43.358;1.248;2023-02-01T03:50:58;6.00;85.10
51383;DHT22;37475;43.358;1.248;2023-02-01T03:53:26;6.00;85.00
51383;DHT22;37475;43.358;1.248;2023-02-01T03:55:54;5.90;85.00
51383;DHT22;37475;43.358;1.248;2023-02-01T03:58:22;5.90;85.20
51383;DHT22;37475;43.358;1.248;2023-02-01T04:00:54;5.90;85.20
51383;DHT22;37475;43.358;1.248;2023-02-01T04:03:25;5.90;85.20
51383;DHT22;37475;43.358;1.248;2023-02-01T04:05:53;5.90;85.10
51383;DHT22;37475;43.358;1.248;2023-02-01T04:08:20;5.90;85.20
51383;DHT22;37475;43.358;1.248;2023-02-01T04:10:46;5.90;85.20
51383;DHT22;37475;43.358;1.248;2023-02-01T04:13:12;5.80;85.30
51383;DHT22;37475;43.358;1.248;2023-02-01T04:15:39;5.80;85.40
51383;DHT22;37475;43.358;1.248;2023-02-01T04:18:05;5.80;85.60
51383;DHT22;37475;43.358;1.248;2023-02-01T04:20:31;5.70;85.70
51383;DHT22;37475;43.358;1.248;2023-02-01T04:22:57;5.70;85.80
51383;DHT22;37475;43.358;1.248;2023-02-01T04:25:23;5.80;85.80
51383;DHT22;37475;43.358;1.248;2023-02-01T04:27:49;5.80;85.70
51383;DHT22;37475;43.358;1.248;2023-02-01T04:30:15;5.80;85.60
51383;DHT22;37475;43.358;1.248;2023-02-01T04:32:41;5.80;85.70
51383;DHT22;37475;43.358;1.248;2023-02-01T04:35:07;5.70;85.70
51383;DHT22;37475;43.358;1.248;2023-02-01T04:37:34;5.80;85.80
51383;DHT22;37475;43.358;1.248;2023-02-01T04:40:00;5.70;85.70
51383;DHT22;37475;43.358;1.248;2023-02-01T04:42:26;5.80;85.60
51383;DHT22;37475;43.358;1.248;2023-02-01T04:44:51;5.90;85.40
51383;DHT22;37475;43.358;1.248;2023-02-01T04:47:17;5.90;85.30
51383;DHT22;37475;43.358;1.248;2023-02-01T04:49:43;5.90;85.20
51383;DHT22;37475;43.358;1.248;2023-02-01T04:52:09;5.80;85.30
51383;DHT22;37475;43.358;1.248;2023-02-01T04:54:35;5.70;85.80
51383;DHT22;37475;43.358;1.248;2023-02-01T04:57:00;5.70;85.90
51383;DHT22;37475;43.358;1.248;2023-02-01T04:59:27;5.70;85.90
51383;DHT22;37475;43.358;1.248;2023-02-01T05:01:54;5.70;85.90
51383;DHT22;37475;43.358;1.248;2023-02-01T05:04:20;5.70;86.00
51383;DHT22;37475;43.358;1.248;2023-02-01T05:06:45;5.60;86.10
51383;DHT22;37475;43.358;1.248;2023-02-01T05:09:11;5.60;86.20
51383;DHT22;37475;43.358;1.248;2023-02-01T05:11:37;5.60;86.10
51383;DHT22;37475;43.358;1.248;2023-02-01T05:14:22;5.60;86.20
51383;DHT22;37475;43.358;1.248;2023-02-01T05:16:48;5.60;86.10
51383;DHT22;37475;43.358;1.248;2023-02-01T05:19:14;5.70;86.10
51383;DHT22;37475;43.358;1.248;2023-02-01T05:21:39;5.70;86.00
51383;DHT22;37475;43.358;1.248;2023-02-01T05:24:07;5.70;85.70
51383;DHT22;37475;43.358;1.248;2023-02-01T05:26:39;5.70;85.80
51383;DHT22;37475;43.358;1.248;2023-02-01T05:29:06;5.70;85.70
51383;DHT22;37475;43.358;1.248;2023-02-01T05:31:33;5.70;85.60
51383;DHT22;37475;43.358;1.248;2023-02-01T05:33:59;5.70;85.60
51383;DHT22;37475;43.358;1.248;2023-02-01T05:36:25;5.70;85.50
51383;DHT22;37475;43.358;1.248;2023-02-01T05:38:51;5.80;85.40
51383;DHT22;37475;43.358;1.248;2023-02-01T05:41:16;5.70;85.40
51383;DHT22;37475;43.358;1.248;2023-02-01T05:43:42;5.70;85.40
51383;DHT22;37475;43.358;1.248;2023-02-01T05:46:08;5.70;85.50
51383;DHT22;37475;43.358;1.248;2023-02-01T05:48:38;5.70;85.50
51383;DHT22;37475;43.358;1.248;2023-02-01T05:51:05;5.80;85.40
51383;DHT22;37475;43.358;1.248;2023-02-01T05:53:31;5.80;85.40
51383;DHT22;37475;43.358;1.248;2023-02-01T05:55:57;5.70;85.40
51383;DHT22;37475;43.358;1.248;2023-02-01T05:58:22;5.80;85.30
51383;DHT22;37475;43.358;1.248;2023-02-01T06:00:48;5.80;85.20
51383;DHT22;37475;43.358;1.248;2023-02-01T06:03:14;5.80;85.20
51383;DHT22;37475;43.358;1.248;2023-02-01T06:05:40;5.80;85.00
51383;DHT22;37475;43.358;1.248;2023-02-01T06:08:05;5.90;84.80
51383;DHT22;37475;43.358;1.248;2023-02-01T06:10:33;5.90;84.80
51383;DHT22;37475;43.358;1.248;2023-02-01T06:12:59;5.80;84.70
51383;DHT22;37475;43.358;1.248;2023-02-01T06:15:24;5.80;84.60
51383;DHT22;37475;43.358;1.248;2023-02-01T06:17:50;5.90;84.20
51383;DHT22;37475;43.358;1.248;2023-02-01T06:20:16;5.90;84.10
51383;DHT22;37475;43.358;1.248;2023-02-01T06:22:42;5.90;84.10
51383;DHT22;37475;43.358;1.248;2023-02-01T06:25:09;5.90;83.80
51383;DHT22;37475;43.358;1.248;2023-02-01T06:27:36;6.00;83.60
51383;DHT22;37475;43.358;1.248;2023-02-01T06:30:03;5.90;83.40
51383;DHT22;37475;43.358;1.248;2023-02-01T06:32:30;5.90;83.20
51383;DHT22;37475;43.358;1.248;2023-02-01T06:34:56;5.90;83.00
51383;DHT22;37475;43.358;1.248;2023-02-01T06:37:22;5.80;83.00
51383;DHT22;37475;43.358;1.248;2023-02-01T06:39:50;5.80;83.00
51383;DHT22;37475;43.358;1.248;2023-02-01T06:42:16;5.70;83.10
51383;DHT22;37475;43.358;1.248;2023-02-01T06:44:42;5.70;83.20
51383;DHT22;37475;43.358;1.248;2023-02-01T06:47:08;5.60;83.20
51383;DHT22;37475;43.358;1.248;2023-02-01T06:49:34;5.50;83.60
51383;DHT22;37475;43.358;1.248;2023-02-01T06:52:01;5.40;84.00
51383;DHT22;37475;43.358;1.248;2023-02-01T06:54:28;5.40;84.00
51383;DHT22;37475;43.358;1.248;2023-02-01T06:56:54;5.20;84.10
51383;DHT22;37475;43.358;1.248;2023-02-01T06:59:20;5.20;84.50
51383;DHT22;37475;43.358;1.248;2023-02-01T07:01:46;5.10;84.80
51383;DHT22;37475;43.358;1.248;2023-02-01T07:04:12;5.10;85.20
51383;DHT22;37475;43.358;1.248;2023-02-01T07:06:39;5.00;85.20
51383;DHT22;37475;43.358;1.248;2023-02-01T07:09:05;4.90;85.50
51383;DHT22;37475;43.358;1.248;2023-02-01T07:11:32;4.80;85.80
51383;DHT22;37475;43.358;1.248;2023-02-01T07:13:58;4.80;86.00
51383;DHT22;37475;43.358;1.248;2023-02-01T07:16:24;4.70;86.00
51383;DHT22;37475;43.358;1.248;2023-02-01T07:18:51;4.70;86.10
51383;DHT22;37475;43.358;1.248;2023-02-01T07:21:18;4.70;86.30
51383;DHT22;37475;43.358;1.248;2023-02-01T07:23:44;4.70;86.30
51383;DHT22;37475;43.358;1.248;2023-02-01T07:26:12;4.70;86.20
51383;DHT22;37475;43.358;1.248;2023-02-01T07:28:40;4.60;86.60
51383;DHT22;37475;43.358;1.248;2023-02-01T07:31:12;4.60;86.50
51383;DHT22;37475;43.358;1.248;2023-02-01T07:33:41;4.60;86.50
51383;DHT22;37475;43.358;1.248;2023-02-01T07:36:14;4.60;86.50
51383;DHT22;37475;43.358;1.248;2023-02-01T07:38:42;4.60;86.50
51383;DHT22;37475;43.358;1.248;2023-02-01T07:41:08;4.60;86.50
51383;DHT22;37475;43.358;1.248;2023-02-01T07:43:35;4.60;86.60
51383;DHT22;37475;43.358;1.248;2023-02-01T07:46:02;4.50;86.90
51383;DHT22;37475;43.358;1.248;2023-02-01T07:48:29;4.60;86.90
51383;DHT22;37475;43.358;1.248;2023-02-01T07:51:02;4.60;86.70
51383;DHT22;37475;43.358;1.248;2023-02-01T07:53:33;4.70;86.50
51383;DHT22;37475;43.358;1.248;2023-02-01T07:56:00;4.70;86.50
51383;DHT22;37475;43.358;1.248;2023-02-01T07:58:27;4.90;86.30
51383;DHT22;37475;43.358;1.248;2023-02-01T08:00:54;5.00;86.10
51383;DHT22;37475;43.358;1.248;2023-02-01T08:03:39;5.10;86.00
51383;DHT22;37475;43.358;1.248;2023-02-01T08:06:05;5.10;85.90
51383;DHT22;37475;43.358;1.248;2023-02-01T08:08:32;5.20;85.80
51383;DHT22;37475;43.358;1.248;2023-02-01T08:11:03;5.20;86.60
51383;DHT22;37475;43.358;1.248;2023-02-01T08:13:31;5.20;86.60
51383;DHT22;37475;43.358;1.248;2023-02-01T08:16:08;5.20;86.20
51383;DHT22;37475;43.358;1.248;2023-02-01T08:18:37;5.40;85.90
51383;DHT22;37475;43.358;1.248;2023-02-01T08:23:30;5.40;85.30
51383;DHT22;37475;43.358;1.248;2023-02-01T08:26:21;5.50;85.30
51383;DHT22;37475;43.358;1.248;2023-02-01T08:28:59;5.50;84.90
51383;DHT22;37475;43.358;1.248;2023-02-01T08:31:28;5.50;84.80
51383;DHT22;37475;43.358;1.248;2023-02-01T08:33:57;5.60;84.40
51383;DHT22;37475;43.358;1.248;2023-02-01T08:36:26;5.60;84.60
51383;DHT22;37475;43.358;1.248;2023-02-01T08:38:53;5.60;84.70
51383;DHT22;37475;43.358;1.248;2023-02-01T08:41:21;5.60;85.00
51383;DHT22;37475;43.358;1.248;2023-02-01T08:43:49;5.60;85.00
51383;DHT22;37475;43.358;1.248;2023-02-01T08:46:15;5.60;85.10
51383;DHT22;37475;43.358;1.248;2023-02-01T08:48:41;5.70;85.10
51383;DHT22;37475;43.358;1.248;2023-02-01T08:51:11;5.80;85.10
51383;DHT22;37475;43.358;1.248;2023-02-01T08:53:39;5.90;85.10
51383;DHT22;37475;43.358;1.248;2023-02-01T08:56:09;6.10;84.80
51383;DHT22;37475;43.358;1.248;2023-02-01T08:58:36;6.20;84.70
51383;DHT22;37475;43.358;1.248;2023-02-01T09:01:08;6.40;84.30
51383;DHT22;37475;43.358;1.248;2023-02-01T09:03:38;6.70;86.40
51383;DHT22;37475;43.358;1.248;2023-02-01T09:06:08;7.00;86.60
51383;DHT22;37475;43.358;1.248;2023-02-01T09:08:36;7.20;86.40
51383;DHT22;37475;43.358;1.248;2023-02-01T09:11:05;7.40;86.30
51383;DHT22;37475;43.358;1.248;2023-02-01T09:13:33;7.50;85.50
51383;DHT22;37475;43.358;1.248;2023-02-01T09:15:59;7.40;85.10
51383;DHT22;37475;43.358;1.248;2023-02-01T09:18:25;7.40;85.60
51383;DHT22;37475;43.358;1.248;2023-02-01T09:20:51;7.30;85.90
51383;DHT22;37475;43.358;1.248;2023-02-01T09:23:17;7.40;85.80
51383;DHT22;37475;43.358;1.248;2023-02-01T09:25:45;7.50;85.80
51383;DHT22;37475;43.358;1.248;2023-02-01T09:28:15;7.70;85.70
51383;DHT22;37475;43.358;1.248;2023-02-01T09:30:41;7.80;85.60
51383;DHT22;37475;43.358;1.248;2023-02-01T09:33:07;8.00;84.60
51383;DHT22;37475;43.358;1.248;2023-02-01T09:35:33;8.00;83.90
51383;DHT22;37475;43.358;1.248;2023-02-01T09:37:59;7.80;83.90
51383;DHT22;37475;43.358;1.248;2023-02-01T09:40:25;7.80;84.40
51383;DHT22;37475;43.358;1.248;2023-02-01T09:48:36;8.30;83.10
51383;DHT22;37475;43.358;1.248;2023-02-01T09:51:12;8.00;83.50
51383;DHT22;37475;43.358;1.248;2023-02-01T09:53:44;8.00;84.70
51383;DHT22;37475;43.358;1.248;2023-02-01T09:56:15;8.20;83.70
51383;DHT22;37475;43.358;1.248;2023-02-01T10:01:47;8.00;83.50
51383;DHT22;37475;43.358;1.248;2023-02-01T10:04:14;8.10;82.80
51383;DHT22;37475;43.358;1.248;2023-02-01T10:06:47;8.10;82.50
51383;DHT22;37475;43.358;1.248;2023-02-01T10:09:52;8.20;82.20
51383;DHT22;37475;43.358;1.248;2023-02-01T10:12:57;8.40;81.60
51383;DHT22;37475;43.358;1.248;2023-02-01T10:24:40;9.20;80.00
51383;DHT22;37475;43.358;1.248;2023-02-01T10:27:41;9.40;78.90
51383;DHT22;37475;43.358;1.248;2023-02-01T10:30:21;9.10;76.60
51383;DHT22;37475;43.358;1.248;2023-02-01T10:33:15;8.50;77.40
51383;DHT22;37475;43.358;1.248;2023-02-01T10:35:45;8.20;77.70
51383;DHT22;37475;43.358;1.248;2023-02-01T10:38:27;8.30;78.70
51383;DHT22;37475;43.358;1.248;2023-02-01T10:41:00;8.60;78.50
51383;DHT22;37475;43.358;1.248;2023-02-01T10:43:28;9.10;76.50
51383;DHT22;37475;43.358;1.248;2023-02-01T10:45:54;9.30;73.90
51383;DHT22;37475;43.358;1.248;2023-02-01T10:48:20;9.50;73.30
51383;DHT22;37475;43.358;1.248;2023-02-01T10:50:51;9.80;71.20
51383;DHT22;37475;43.358;1.248;2023-02-01T10:53:49;10.30;69.80
51383;DHT22;37475;43.358;1.248;2023-02-01T10:56:26;10.20;69.40
51383;DHT22;37475;43.358;1.248;2023-02-01T10:59:03;10.70;68.90
51383;DHT22;37475;43.358;1.248;2023-02-01T11:01:39;10.90;65.80
51383;DHT22;37475;43.358;1.248;2023-02-01T11:04:10;10.50;67.10
51383;DHT22;37475;43.358;1.248;2023-02-01T11:06:41;10.20;66.30
51383;DHT22;37475;43.358;1.248;2023-02-01T11:11:53;9.50;69.80
51383;DHT22;37475;43.358;1.248;2023-02-01T11:14:41;9.70;70.80
51383;DHT22;37475;43.358;1.248;2023-02-01T11:17:17;9.40;70.40
51383;DHT22;37475;43.358;1.248;2023-02-01T11:20:02;9.10;71.00
51383;DHT22;37475;43.358;1.248;2023-02-01T11:22:30;9.20;72.20
51383;DHT22;37475;43.358;1.248;2023-02-01T11:24:56;9.20;71.80
51383;DHT22;37475;43.358;1.248;2023-02-01T11:27:24;9.10;72.00
51383;DHT22;37475;43.358;1.248;2023-02-01T11:29:54;9.10;72.50
51383;DHT22;37475;43.358;1.248;2023-02-01T11:32:26;9.20;72.60
51383;DHT22;37475;43.358;1.248;2023-02-01T11:34:56;9.10;72.30
51383;DHT22;37475;43.358;1.248;2023-02-01T11:37:26;9.10;73.20
51383;DHT22;37475;43.358;1.248;2023-02-01T11:39:58;9.00;73.90
51383;DHT22;37475;43.358;1.248;2023-02-01T11:42:29;8.90;73.90
51383;DHT22;37475;43.358;1.248;2023-02-01T11:45:20;9.00;74.10
51383;DHT22;37475;43.358;1.248;2023-02-01T11:47:54;9.30;73.80
51383;DHT22;37475;43.358;1.248;2023-02-01T12:26:52;9.20;75.10
51383;DHT22;37475;43.358;1.248;2023-02-01T12:29:40;9.10;75.20
51383;DHT22;37475;43.358;1.248;2023-02-01T12:32:15;9.10;75.10
51383;DHT22;37475;43.358;1.248;2023-02-01T12:35:13;9.20;74.60
51383;DHT22;37475;43.358;1.248;2023-02-01T12:38:13;9.20;75.60
51383;DHT22;37475;43.358;1.248;2023-02-01T12:50:58;9.30;72.60
51383;DHT22;37475;43.358;1.248;2023-02-01T12:59:28;9.50;71.00
51383;DHT22;37475;43.358;1.248;2023-02-01T13:05:22;9.20;71.30
51383;DHT22;37475;43.358;1.248;2023-02-01T13:07:52;9.20;70.90
51383;DHT22;37475;43.358;1.248;2023-02-01T13:18:49;9.00;72.20
51383;DHT22;37475;43.358;1.248;2023-02-01T13:21:26;9.10;72.50
51383;DHT22;37475;43.358;1.248;2023-02-01T13:23:55;9.20;71.60
51383;DHT22;37475;43.358;1.248;2023-02-01T13:26:20;9.10;72.80
51383;DHT22;37475;43.358;1.248;2023-02-01T13:41:28;9.30;71.30
51383;DHT22;37475;43.358;1.248;2023-02-01T13:44:01;9.10;70.40
51383;DHT22;37475;43.358;1.248;2023-02-01T13:46:40;9.10;71.10
51383;DHT22;37475;43.358;1.248;2023-02-01T13:49:19;9.00;70.90
51383;DHT22;37475;43.358;1.248;2023-02-01T13:51:51;9.00;70.30
51383;DHT22;37475;43.358;1.248;2023-02-01T13:54:38;9.10;71.00
51383;DHT22;37475;43.358;1.248;2023-02-01T13:57:14;9.20;71.30
51383;DHT22;37475;43.358;1.248;2023-02-01T14:05:08;9.70;69.90
51383;DHT22;37475;43.358;1.248;2023-02-01T14:07:35;9.80;69.20
51383;DHT22;37475;43.358;1.248;2023-02-01T14:21:31;13.90;52.70
51383;DHT22;37475;43.358;1.248;2023-02-01T14:34:38;13.60;54.00
51383;DHT22;37475;43.358;1.248;2023-02-01T14:37:11;13.60;53.20
51383;DHT22;37475;43.358;1.248;2023-02-01T14:39:56;13.40;55.00
51383;DHT22;37475;43.358;1.248;2023-02-01T14:42:45;13.60;53.60
51383;DHT22;37475;43.358;1.248;2023-02-01T14:55:47;12.10;56.90
51383;DHT22;37475;43.358;1.248;2023-02-01T15:01:29;12.90;55.80
51383;DHT22;37475;43.358;1.248;2023-02-01T15:04:13;12.50;55.80
51383;DHT22;37475;43.358;1.248;2023-02-01T15:07:03;12.40;55.30
51383;DHT22;37475;43.358;1.248;2023-02-01T15:09:44;12.50;56.20
51383;DHT22;37475;43.358;1.248;2023-02-01T15:17:26;12.00;57.00
51383;DHT22;37475;43.358;1.248;2023-02-01T15:20:01;12.20;55.60
51383;DHT22;37475;43.358;1.248;2023-02-01T15:22:30;12.20;55.20
51383;DHT22;37475;43.358;1.248;2023-02-01T15:24:59;12.30;55.00
51383;DHT22;37475;43.358;1.248;2023-02-01T15:27:26;12.10;55.00
51383;DHT22;37475;43.358;1.248;2023-02-01T15:29:53;12.10;56.10
51383;DHT22;37475;43.358;1.248;2023-02-01T15:32:35;12.00;57.70
51383;DHT22;37475;43.358;1.248;2023-02-01T15:35:05;11.60;58.00
51383;DHT22;37475;43.358;1.248;2023-02-01T15:37:31;11.80;56.60
51383;DHT22;37475;43.358;1.248;2023-02-01T15:42:57;11.60;58.00
51383;DHT22;37475;43.358;1.248;2023-02-01T15:45:29;12.10;57.40
51383;DHT22;37475;43.358;1.248;2023-02-01T15:47:58;12.40;56.30
51383;DHT22;37475;43.358;1.248;2023-02-01T15:50:27;12.30;55.80
51383;DHT22;37475;43.358;1.248;2023-02-01T15:52:58;12.20;56.30
51383;DHT22;37475;43.358;1.248;2023-02-01T15:58:27;12.60;55.30
51383;DHT22;37475;43.358;1.248;2023-02-01T16:01:02;12.70;55.70
51383;DHT22;37475;43.358;1.248;2023-02-01T16:03:42;11.80;56.60
51383;DHT22;37475;43.358;1.248;2023-02-01T16:06:12;12.00;57.50
51383;DHT22;37475;43.358;1.248;2023-02-01T16:09:02;11.60;57.40
51383;DHT22;37475;43.358;1.248;2023-02-01T16:11:46;11.50;58.10
51383;DHT22;37475;43.358;1.248;2023-02-01T16:14:14;11.50;58.00
51383;DHT22;37475;43.358;1.248;2023-02-01T16:16:41;11.10;59.70
51383;DHT22;37475;43.358;1.248;2023-02-01T16:19:07;11.00;60.50
51383;DHT22;37475;43.358;1.248;2023-02-01T16:21:33;10.40;62.00
51383;DHT22;37475;43.358;1.248;2023-02-01T16:23:58;10.10;63.10
51383;DHT22;37475;43.358;1.248;2023-02-01T16:26:29;9.70;64.50
51383;DHT22;37475;43.358;1.248;2023-02-01T16:28:57;9.50;65.60
51383;DHT22;37475;43.358;1.248;2023-02-01T16:31:28;9.60;66.10
51383;DHT22;37475;43.358;1.248;2023-02-01T16:33:54;9.60;66.10
51383;DHT22;37475;43.358;1.248;2023-02-01T16:36:21;9.60;65.70
51383;DHT22;37475;43.358;1.248;2023-02-01T16:38:47;9.40;66.40
51383;DHT22;37475;43.358;1.248;2023-02-01T16:41:17;9.20;67.00
51383;DHT22;37475;43.358;1.248;2023-02-01T16:43:50;9.00;67.70
51383;DHT22;37475;43.358;1.248;2023-02-01T16:46:20;8.90;68.60
51383;DHT22;37475;43.358;1.248;2023-02-01T16:48:58;8.80;68.80
51383;DHT22;37475;43.358;1.248;2023-02-01T16:51:28;8.70;68.90
51383;DHT22;37475;43.358;1.248;2023-02-01T16:53:58;8.70;69.10
51383;DHT22;37475;43.358;1.248;2023-02-01T16:56:34;8.60;69.50
51383;DHT22;37475;43.358;1.248;2023-02-01T16:59:01;8.60;69.80
51383;DHT22;37475;43.358;1.248;2023-02-01T17:01:27;8.40;70.20
51383;DHT22;37475;43.358;1.248;2023-02-01T17:03:53;8.30;70.40
51383;DHT22;37475;43.358;1.248;2023-02-01T17:06:21;8.20;70.80
51383;DHT22;37475;43.358;1.248;2023-02-01T17:08:54;8.20;70.90
51383;DHT22;37475;43.358;1.248;2023-02-01T17:11:25;8.00;71.50
51383;DHT22;37475;43.358;1.248;2023-02-01T17:13:52;7.90;72.00
51383;DHT22;37475;43.358;1.248;2023-02-01T17:18:49;7.60;73.10
51383;DHT22;37475;43.358;1.248;2023-02-01T17:21:18;7.60;73.10
51383;DHT22;37475;43.358;1.248;2023-02-01T17:23:44;7.50;73.40
51383;DHT22;37475;43.358;1.248;2023-02-01T17:26:10;7.50;73.20
51383;DHT22;37475;43.358;1.248;2023-02-01T17:28:36;7.50;73.20
51383;DHT22;37475;43.358;1.248;2023-02-01T17:31:03;7.40;73.10
51383;DHT22;37475;43.358;1.248;2023-02-01T17:33:31;7.20;73.30
51383;DHT22;37475;43.358;1.248;2023-02-01T17:36:00;6.90;74.20
51383;DHT22;37475;43.358;1.248;2023-02-01T17:38:26;6.80;75.00
51383;DHT22;37475;43.358;1.248;2023-02-01T17:40:52;6.60;75.30
51383;DHT22;37475;43.358;1.248;2023-02-01T17:43:21;6.50;75.70
51383;DHT22;37475;43.358;1.248;2023-02-01T17:45:52;6.20;76.60
51383;DHT22;37475;43.358;1.248;2023-02-01T17:48:20;6.10;77.30
51383;DHT22;37475;43.358;1.248;2023-02-01T17:50:49;6.10;78.00
51383;DHT22;37475;43.358;1.248;2023-02-01T17:53:19;6.10;78.40
51383;DHT22;37475;43.358;1.248;2023-02-01T17:55:49;6.10;78.20
51383;DHT22;37475;43.358;1.248;2023-02-01T17:58:16;6.10;78.00
51383;DHT22;37475;43.358;1.248;2023-02-01T18:00:43;6.10;77.90
51383;DHT22;37475;43.358;1.248;2023-02-01T18:03:25;6.10;77.90
51383;DHT22;37475;43.358;1.248;2023-02-01T18:05:54;6.00;77.90
51383;DHT22;37475;43.358;1.248;2023-02-01T18:08:23;5.90;77.40
51383;DHT22;37475;43.358;1.248;2023-02-01T18:10:59;5.90;77.10
51383;DHT22;37475;43.358;1.248;2023-02-01T18:13:30;5.80;78.30
51383;DHT22;37475;43.358;1.248;2023-02-01T18:15:57;5.80;80.20
51383;DHT22;37475;43.358;1.248;2023-02-01T18:18:24;5.70;79.20
51383;DHT22;37475;43.358;1.248;2023-02-01T18:20:51;5.70;78.90
51383;DHT22;37475;43.358;1.248;2023-02-01T18:23:19;5.60;79.00
51383;DHT22;37475;43.358;1.248;2023-02-01T18:25:46;5.60;78.90
51383;DHT22;37475;43.358;1.248;2023-02-01T18:28:13;5.60;78.70
51383;DHT22;37475;43.358;1.248;2023-02-01T18:30:41;5.60;78.70
51383;DHT22;37475;43.358;1.248;2023-02-01T18:33:11;5.50;79.00
51383;DHT22;37475;43.358;1.248;2023-02-01T18:35:37;5.20;79.50
51383;DHT22;37475;43.358;1.248;2023-02-01T18:38:04;5.20;82.20
51383;DHT22;37475;43.358;1.248;2023-02-01T18:40:35;5.30;81.80
51383;DHT22;37475;43.358;1.248;2023-02-01T18:43:04;5.00;81.30
51383;DHT22;37475;43.358;1.248;2023-02-01T18:48:04;4.80;82.60
51383;DHT22;37475;43.358;1.248;2023-02-01T18:50:34;4.90;82.40
51383;DHT22;37475;43.358;1.248;2023-02-01T18:53:04;4.90;82.00
51383;DHT22;37475;43.358;1.248;2023-02-01T18:55:31;5.00;82.50
51383;DHT22;37475;43.358;1.248;2023-02-01T18:57:58;5.00;82.40
51383;DHT22;37475;43.358;1.248;2023-02-01T19:00:25;5.00;82.30
51383;DHT22;37475;43.358;1.248;2023-02-01T19:02:52;4.90;82.30
51383;DHT22;37475;43.358;1.248;2023-02-01T19:05:18;4.90;82.50
51383;DHT22;37475;43.358;1.248;2023-02-01T19:07:45;4.80;82.40
51383;DHT22;37475;43.358;1.248;2023-02-01T19:10:14;4.80;83.00
51383;DHT22;37475;43.358;1.248;2023-02-01T19:12:44;4.70;83.20
51383;DHT22;37475;43.358;1.248;2023-02-01T19:15:11;4.70;83.60
51383;DHT22;37475;43.358;1.248;2023-02-01T19:17:44;4.80;83.90
51383;DHT22;37475;43.358;1.248;2023-02-01T19:20:14;4.80;84.20
51383;DHT22;37475;43.358;1.248;2023-02-01T19:22:43;4.90;84.10
51383;DHT22;37475;43.358;1.248;2023-02-01T19:25:15;4.90;84.30
51383;DHT22;37475;43.358;1.248;2023-02-01T19:27:51;4.70;84.60